createdAt,value
2018-08-03T00:01:29.471Z,65.33
2018-08-03T00:03:58.219Z,65.26
2018-08-03T00:06:26.910Z,65.05
2018-08-03T00:08:55.612Z,64.51
2018-08-03T00:11:24.618Z,64.55
2018-08-03T00:13:53.367Z,64.55
2018-08-03T00:16:22.120Z,65.09
2018-08-03T00:18:50.819Z,65.70
2018-08-03T00:21:19.721Z,65.80
2018-08-03T00:23:49.304Z,66.94
2018-08-03T00:26:18.521Z,66.67
2018-08-03T00:28:47.258Z,66.51
2018-08-03T00:31:15.934Z,66.54
2018-08-03T00:33:44.650Z,66.52
2018-08-03T00:36:13.356Z,66.57
2018-08-03T00:38:42.079Z,66.53
2018-08-03T00:41:10.823Z,65.99
2018-08-03T00:43:39.524Z,66.12
2018-08-03T00:46:08.327Z,66.61
2018-08-03T00:48:36.975Z,66.60
2018-08-03T00:51:05.675Z,67.09
2018-08-03T00:53:34.369Z,66.96
2018-08-03T00:56:03.275Z,66.92
2018-08-03T00:58:32.050Z,66.72
2018-08-03T01:01:00.718Z,66.68
2018-08-03T01:03:29.442Z,66.33
2018-08-03T01:05:58.236Z,66.09
2018-08-03T01:08:27.182Z,65.83
2018-08-03T01:10:56.212Z,65.61
2018-08-03T01:13:24.924Z,65.39
2018-08-03T01:15:53.652Z,65.64
2018-08-03T01:18:22.345Z,65.56
2018-08-03T01:20:51.040Z,65.45
2018-08-03T01:23:19.772Z,65.16
2018-08-03T01:25:48.458Z,64.82
2018-08-03T01:28:17.187Z,64.84
2018-08-03T01:30:45.936Z,65.13
2018-08-03T01:33:14.791Z,65.17
2018-08-03T01:35:43.502Z,65.16
2018-08-03T01:38:12.195Z,65.77
2018-08-03T01:40:40.997Z,66.59
2018-08-03T01:43:09.867Z,68.15
2018-08-03T01:45:38.570Z,68.42
2018-08-03T01:48:07.243Z,68.79
2018-08-03T01:50:35.935Z,69.41
2018-08-03T01:53:04.620Z,68.81
2018-08-03T01:55:33.323Z,68.90
2018-08-03T01:58:02.372Z,68.49
2018-08-03T02:00:31.107Z,68.28
2018-08-03T02:02:59.878Z,68.79
2018-08-03T02:05:28.614Z,69.21
2018-08-03T02:07:57.366Z,69.19
2018-08-03T02:10:26.058Z,69.34
2018-08-03T02:12:54.766Z,69.64
2018-08-03T02:15:23.509Z,70.02
2018-08-03T02:17:52.194Z,70.57
2018-08-03T02:20:20.936Z,70.24
2018-08-03T02:22:49.649Z,70.24
2018-08-03T02:25:19.117Z,70.21
2018-08-03T02:27:51.679Z,70.50
2018-08-03T02:30:20.393Z,70.98
2018-08-03T02:32:49.083Z,71.35
2018-08-03T02:35:17.831Z,71.93
2018-08-03T02:37:46.504Z,71.47
2018-08-03T02:40:15.360Z,71.55
2018-08-03T02:42:44.026Z,71.06
2018-08-03T02:45:12.735Z,71.95
2018-08-03T02:47:41.433Z,72.17
2018-08-03T02:50:10.149Z,72.16
2018-08-03T02:52:39.213Z,72.04
2018-08-03T02:55:07.960Z,72.86
2018-08-03T02:57:36.656Z,73.63
2018-08-03T03:00:05.491Z,73.23
2018-08-03T03:02:34.198Z,72.63
2018-08-03T03:05:03.310Z,73.40
2018-08-03T03:07:32.080Z,73.40
2018-08-03T03:10:00.861Z,74.16
2018-08-03T03:12:29.695Z,73.83
2018-08-03T03:14:58.429Z,73.20
2018-08-03T03:17:27.099Z,72.71
2018-08-03T03:19:56.424Z,73.27
2018-08-03T03:22:25.196Z,73.05
2018-08-03T03:24:54.004Z,72.85
2018-08-03T03:27:22.767Z,73.00
2018-08-03T03:29:51.455Z,73.36
2018-08-03T03:32:20.174Z,73.34
2018-08-03T03:34:48.924Z,72.47
2018-08-03T03:37:17.618Z,71.87
2018-08-03T03:39:46.398Z,71.27
2018-08-03T03:42:15.115Z,71.24
2018-08-03T03:44:43.874Z,70.98
2018-08-03T03:47:12.597Z,70.72
2018-08-03T03:49:41.352Z,70.47
2018-08-03T03:52:10.236Z,70.83
2018-08-03T03:54:38.927Z,71.55
2018-08-03T03:57:07.717Z,71.37
2018-08-03T03:59:36.479Z,70.96
2018-08-03T04:02:05.753Z,70.61
2018-08-03T04:04:35.007Z,71.03
2018-08-03T04:07:03.839Z,71.85
2018-08-03T04:09:32.712Z,72.38
2018-08-03T04:12:01.457Z,72.22
2018-08-03T04:14:30.204Z,72.03
2018-08-03T04:16:59.008Z,71.75
2018-08-03T04:19:27.752Z,71.66
2018-08-03T04:21:56.545Z,71.57
2018-08-03T04:24:25.376Z,71.88
2018-08-03T04:26:54.207Z,72.47
2018-08-03T04:29:22.931Z,72.49
2018-08-03T04:31:51.674Z,72.96
2018-08-03T04:34:20.405Z,72.70
2018-08-03T04:36:49.317Z,72.34
2018-08-03T04:39:18.087Z,72.60
2018-08-03T04:41:46.896Z,72.66
2018-08-03T04:44:15.837Z,72.38
2018-08-03T04:46:44.597Z,71.66
2018-08-03T04:49:13.367Z,71.40
2018-08-03T04:51:42.100Z,71.72
2018-08-03T04:54:10.921Z,71.79
2018-08-03T04:56:39.650Z,71.18
2018-08-03T04:59:08.396Z,71.14
2018-08-03T05:01:37.148Z,70.76
2018-08-03T05:04:05.891Z,70.74
2018-08-03T05:06:34.732Z,70.33
2018-08-03T05:09:03.552Z,69.93
2018-08-03T05:11:32.308Z,69.80
2018-08-03T05:14:01.044Z,69.41
2018-08-03T05:16:29.754Z,68.98
2018-08-03T05:18:58.703Z,69.12
2018-08-03T05:21:27.434Z,68.68
2018-08-03T05:23:56.181Z,68.67
2018-08-03T05:26:24.883Z,68.43
2018-08-03T05:28:53.717Z,68.27
2018-08-03T05:31:22.510Z,67.96
2018-08-03T05:33:51.369Z,67.87
2018-08-03T05:36:20.097Z,67.46
2018-08-03T05:38:48.772Z,67.50
2018-08-03T05:41:17.551Z,67.18
2018-08-03T05:43:46.294Z,66.38
2018-08-03T05:46:15.040Z,66.52
2018-08-03T05:48:44.099Z,66.35
2018-08-03T05:51:12.806Z,66.41
2018-08-03T05:53:41.614Z,66.16
2018-08-03T05:56:10.496Z,65.94
2018-08-03T05:58:39.617Z,64.99
2018-08-03T06:01:08.408Z,63.96
2018-08-03T06:03:37.176Z,63.92
2018-08-03T06:06:05.903Z,63.71
2018-08-03T06:08:34.609Z,63.03
2018-08-03T06:11:03.309Z,62.29
2018-08-03T06:13:32.328Z,62.30
2018-08-03T06:16:01.181Z,61.48
2018-08-03T06:18:29.889Z,61.13
2018-08-03T06:20:58.661Z,60.81
2018-08-03T06:23:27.546Z,60.24
2018-08-03T06:25:56.598Z,60.06
2018-08-03T06:28:25.421Z,59.78
2018-08-03T06:30:54.084Z,59.20
2018-08-03T06:33:22.817Z,58.69
2018-08-03T06:35:51.443Z,58.60
2018-08-03T06:38:20.244Z,58.51
2018-08-03T06:40:48.980Z,57.85
2018-08-03T06:43:17.738Z,57.31
2018-08-03T06:45:46.429Z,56.27
2018-08-03T06:48:15.231Z,55.27
2018-08-03T06:50:44.014Z,53.62
2018-08-03T06:53:12.726Z,52.61
2018-08-03T06:55:41.381Z,52.80
2018-08-03T06:58:10.074Z,51.55
2018-08-03T07:00:38.803Z,51.32
2018-08-03T07:03:07.496Z,49.26
2018-08-03T07:05:36.208Z,49.87
2018-08-03T07:08:05.116Z,49.04
2018-08-03T07:10:33.824Z,48.31
2018-08-03T07:13:02.604Z,47.26
2018-08-03T07:15:31.612Z,45.07
2018-08-03T07:18:00.334Z,44.84
2018-08-03T07:20:29.117Z,43.95
2018-08-03T07:22:57.764Z,44.24
2018-08-03T07:25:26.428Z,43.66
2018-08-03T07:27:55.292Z,42.69
2018-08-03T07:30:23.919Z,41.44
2018-08-03T07:32:52.647Z,41.76
2018-08-03T07:35:21.412Z,41.28
2018-08-03T07:37:50.285Z,41.41
2018-08-03T07:40:19.065Z,41.28
2018-08-03T07:42:47.798Z,40.83
2018-08-03T07:45:16.507Z,41.29
2018-08-03T07:47:45.184Z,40.45
2018-08-03T07:50:14.949Z,38.45
2018-08-03T07:52:43.768Z,39.65
2018-08-03T07:55:12.767Z,39.22
2018-08-03T07:57:41.663Z,38.48
2018-08-03T08:00:11.202Z,37.53
2018-08-03T08:02:39.989Z,37.68
2018-08-03T08:05:08.757Z,37.91
2018-08-03T08:07:37.445Z,37.74
2018-08-03T08:10:06.519Z,37.51
2018-08-03T08:12:35.182Z,37.38
2018-08-03T08:15:04.299Z,37.65
2018-08-03T08:17:33.312Z,37.01
2018-08-03T08:20:02.060Z,36.13
2018-08-03T08:22:31.038Z,35.63
2018-08-03T08:24:59.821Z,35.07
2018-08-03T08:27:28.513Z,34.97
2018-08-03T08:29:57.458Z,35.09
2018-08-03T08:32:26.409Z,35.33
2018-08-03T08:34:55.185Z,34.80
2018-08-03T08:37:23.873Z,34.10
2018-08-03T08:39:52.774Z,34.63
2018-08-03T08:42:21.525Z,33.79
2018-08-03T08:44:50.205Z,34.19
2018-08-03T08:47:18.866Z,33.90
2018-08-03T08:49:47.599Z,34.31
2018-08-03T08:52:16.342Z,34.85
2018-08-03T08:54:45.461Z,34.63
2018-08-03T08:57:14.210Z,33.84
2018-08-03T08:59:42.919Z,34.34
2018-08-03T09:02:12.014Z,33.30
2018-08-03T09:04:40.926Z,32.19
2018-08-03T09:07:09.584Z,33.04
2018-08-03T09:09:38.332Z,33.54
2018-08-03T09:12:07.364Z,31.34
2018-08-03T09:14:36.148Z,31.58
2018-08-03T09:17:04.934Z,32.56
2018-08-03T09:19:33.817Z,32.81
2018-08-03T09:22:02.568Z,32.07
2018-08-03T09:24:31.313Z,31.30
2018-08-03T09:26:59.997Z,31.33
2018-08-03T09:29:28.729Z,31.71
2018-08-03T09:31:58.166Z,32.46
2018-08-03T09:34:27.060Z,32.49
2018-08-03T09:36:55.813Z,31.56
2018-08-03T09:39:24.611Z,30.39
2018-08-03T09:41:53.374Z,30.75
2018-08-03T09:44:22.041Z,31.24
2018-08-03T09:46:50.735Z,29.69
2018-08-03T09:49:19.457Z,29.27
2018-08-03T09:51:48.083Z,28.76
2018-08-03T09:54:16.765Z,29.85
2018-08-03T09:56:45.430Z,29.12
2018-08-03T09:59:14.129Z,30.02
2018-08-03T10:01:42.889Z,28.53
2018-08-03T10:04:11.628Z,27.95
2018-08-03T10:06:40.299Z,28.44
2018-08-03T10:09:09.308Z,28.10
2018-08-03T10:11:38.035Z,28.29
2018-08-03T10:14:06.745Z,28.62
2018-08-03T10:16:35.428Z,29.63
2018-08-03T10:19:04.177Z,28.34
2018-08-03T10:21:32.860Z,27.34
2018-08-03T10:24:01.706Z,28.54
2018-08-03T10:26:30.433Z,28.12
2018-08-03T10:28:59.133Z,28.73
2018-08-03T10:31:27.924Z,27.19
2018-08-03T10:34:01.727Z,27.09
2018-08-03T10:36:32.118Z,27.32
2018-08-03T10:39:04.631Z,27.27
2018-08-03T10:41:38.012Z,27.08
2018-08-03T10:44:10.077Z,27.90
2018-08-03T10:46:38.924Z,27.21
2018-08-03T10:49:07.680Z,27.24
2018-08-03T10:51:36.445Z,27.23
2018-08-03T10:54:05.111Z,27.13
2018-08-03T10:56:33.795Z,27.95
2018-08-03T10:59:02.460Z,26.69
2018-08-03T11:01:31.238Z,27.60
2018-08-03T11:03:59.814Z,27.15
2018-08-03T11:06:28.534Z,27.73
2018-08-03T11:08:57.245Z,28.01
2018-08-03T11:11:25.953Z,27.48
2018-08-03T11:13:55.418Z,26.79
2018-08-03T11:16:24.125Z,28.20
2018-08-03T11:18:52.854Z,27.70
2018-08-03T11:21:21.648Z,28.40
2018-08-03T11:23:50.360Z,27.96
2018-08-03T11:26:19.123Z,28.23
2018-08-03T11:28:47.884Z,27.99
2018-08-03T11:31:16.690Z,27.62
2018-08-03T11:33:45.734Z,28.50
2018-08-03T11:36:14.421Z,28.89
2018-08-03T11:38:43.169Z,28.40
2018-08-03T11:41:11.979Z,28.65
2018-08-03T11:43:40.833Z,28.36
2018-08-03T11:46:09.581Z,28.20
2018-08-03T11:48:38.255Z,27.70
2018-08-03T11:51:07.118Z,29.33
2018-08-03T11:53:35.852Z,29.09
2018-08-03T11:56:04.655Z,29.79
2018-08-03T11:58:33.383Z,28.89
2018-08-03T12:01:02.433Z,29.22
2018-08-03T12:03:31.120Z,29.54
2018-08-03T12:05:59.801Z,29.23
2018-08-03T12:08:28.736Z,29.50
2018-08-03T12:10:57.403Z,28.64
2018-08-03T12:13:26.093Z,28.23
2018-08-03T12:15:54.758Z,29.83
2018-08-03T12:18:23.421Z,29.01
2018-08-03T12:20:52.212Z,28.60
2018-08-03T12:23:20.908Z,28.34
2018-08-03T12:25:49.594Z,29.77
2018-08-03T12:28:18.268Z,31.54
2018-08-03T12:30:46.955Z,32.25
2018-08-03T12:33:15.745Z,31.06
2018-08-03T12:35:44.938Z,31.77
2018-08-03T12:38:13.801Z,31.74
2018-08-03T12:40:42.518Z,31.46
2018-08-03T12:43:11.204Z,31.51
2018-08-03T12:45:39.931Z,32.53
2018-08-03T12:48:09.198Z,32.39
2018-08-03T12:50:38.745Z,32.44
2018-08-03T12:53:07.830Z,31.41
2018-08-03T12:55:37.778Z,31.22
2018-08-03T12:58:06.648Z,31.43
2018-08-03T13:00:35.999Z,31.23
2018-08-03T13:03:06.303Z,32.01
2018-08-03T13:05:35.378Z,32.31
2018-08-03T13:08:04.240Z,32.39
2018-08-03T13:10:33.175Z,31.60
2018-08-03T13:13:02.093Z,31.78
2018-08-03T13:15:31.013Z,32.19
2018-08-03T13:18:00.013Z,33.75
2018-08-03T13:20:29.683Z,32.81
2018-08-03T13:22:59.572Z,32.26
2018-08-03T13:25:28.279Z,31.75
2018-08-03T13:27:57.179Z,31.79
2018-08-03T13:30:26.679Z,31.32
2018-08-03T13:32:55.598Z,31.39
2018-08-03T13:35:24.910Z,31.59
2018-08-03T13:37:53.681Z,30.84
2018-08-03T13:40:22.401Z,30.78
2018-08-03T13:42:51.544Z,30.88
2018-08-03T13:45:20.368Z,31.30
2018-08-03T13:47:49.176Z,31.40
2018-08-03T13:50:18.206Z,30.82
2018-08-03T13:52:48.597Z,30.99
2018-08-03T13:55:17.367Z,31.20
2018-08-03T13:57:46.780Z,31.22
2018-08-03T14:00:15.521Z,31.30
2018-08-03T14:02:44.687Z,31.50
2018-08-03T14:05:13.412Z,31.94
2018-08-03T14:07:42.334Z,31.68
2018-08-03T14:10:11.261Z,32.49
2018-08-03T14:12:39.939Z,32.27
2018-08-03T14:15:08.640Z,32.54
2018-08-03T14:17:37.362Z,32.92
2018-08-03T14:20:06.962Z,32.99
2018-08-03T14:22:35.664Z,32.63
2018-08-03T14:25:04.325Z,32.37
2018-08-03T14:27:33.059Z,32.46
2018-08-03T14:30:01.840Z,32.27
2018-08-03T14:32:30.498Z,32.29
2018-08-03T14:34:59.229Z,32.63
2018-08-03T14:37:27.879Z,32.30
2018-08-03T14:39:56.570Z,31.68
2018-08-03T14:42:25.391Z,32.50
2018-08-03T14:44:54.125Z,32.42
2018-08-03T14:47:22.806Z,32.52
2018-08-03T14:49:51.508Z,32.54
2018-08-03T14:52:20.243Z,32.76
2018-08-03T14:54:48.953Z,33.22
2018-08-03T14:57:17.912Z,32.92
2018-08-03T14:59:46.820Z,32.72
2018-08-03T15:02:15.594Z,32.94
2018-08-03T15:04:44.353Z,33.59
2018-08-03T15:07:13.084Z,33.93
2018-08-03T15:09:41.887Z,33.68
2018-08-03T15:12:10.646Z,33.55
2018-08-03T15:14:39.339Z,33.15
2018-08-03T15:17:08.214Z,33.70
2018-08-03T15:19:37.223Z,33.64
2018-08-03T15:22:06.177Z,33.06
2018-08-03T15:24:34.816Z,33.75
2018-08-03T15:27:03.882Z,33.67
2018-08-03T15:29:32.951Z,33.29
2018-08-03T15:32:01.657Z,32.86
2018-08-03T15:34:30.358Z,33.40
2018-08-03T15:36:59.228Z,33.01
2018-08-03T15:39:28.155Z,33.26
2018-08-03T15:41:56.870Z,34.01
2018-08-03T15:44:25.744Z,33.55
2018-08-03T15:46:55.572Z,33.64
2018-08-03T15:49:24.609Z,33.16
2018-08-03T15:51:53.479Z,32.83
2018-08-03T15:54:22.272Z,32.92
2018-08-03T15:56:51.458Z,33.03
2018-08-03T15:59:20.153Z,33.33
2018-08-03T16:01:48.921Z,34.10
2018-08-03T16:04:17.779Z,33.77
2018-08-03T16:06:46.548Z,33.88
2018-08-03T16:09:15.411Z,34.41
2018-08-03T16:11:45.339Z,34.96
2018-08-03T16:14:14.069Z,35.45
2018-08-03T16:16:42.947Z,35.55
2018-08-03T16:19:11.624Z,36.12
2018-08-03T16:21:40.392Z,36.17
2018-08-03T16:24:09.172Z,36.64
2018-08-03T16:26:37.945Z,36.35
2018-08-03T16:29:06.839Z,36.88
2018-08-03T16:31:35.557Z,37.12
2018-08-03T16:34:05.784Z,37.43
2018-08-03T16:36:34.476Z,38.09
2018-08-03T16:39:03.511Z,39.51
2018-08-03T16:41:32.364Z,40.95
2018-08-03T16:44:01.016Z,39.76
2018-08-03T16:46:30.605Z,39.32
2018-08-03T16:48:59.256Z,39.68
2018-08-03T16:51:28.019Z,39.75
2018-08-03T16:53:56.771Z,40.42
2018-08-03T16:56:25.539Z,40.79
2018-08-03T16:58:54.280Z,41.02
2018-08-03T17:01:23.524Z,41.41
2018-08-03T17:03:52.519Z,41.88
2018-08-03T17:06:22.747Z,43.40
2018-08-03T17:08:51.601Z,44.45
2018-08-03T17:11:20.318Z,43.50
2018-08-03T17:13:49.075Z,44.92
2018-08-03T17:16:17.861Z,47.57
2018-08-03T17:18:46.619Z,46.43
2018-08-03T17:21:16.020Z,45.48
2018-08-03T17:23:45.099Z,46.17
2018-08-03T17:26:13.921Z,45.24
2018-08-03T17:28:42.609Z,47.86
2018-08-03T17:31:11.338Z,46.29
2018-08-03T17:33:40.080Z,47.23
2018-08-03T17:36:08.887Z,45.52
2018-08-03T17:38:38.044Z,46.14
2018-08-03T17:41:06.923Z,46.88
2018-08-03T17:43:35.712Z,48.14
2018-08-03T17:46:04.925Z,47.58
2018-08-03T17:48:33.819Z,46.87
2018-08-03T17:51:02.705Z,46.94
2018-08-03T17:53:31.460Z,46.62
2018-08-03T17:56:00.131Z,46.63
2018-08-03T17:58:30.228Z,46.82
2018-08-03T18:00:59.181Z,47.19
2018-08-03T18:03:28.119Z,46.90
2018-08-03T18:05:57.050Z,47.07
2018-08-03T18:08:26.131Z,47.64
2018-08-03T18:10:54.880Z,48.39
2018-08-03T18:13:23.580Z,48.39
2018-08-03T18:15:52.373Z,49.71
2018-08-03T18:18:22.093Z,48.10
2018-08-03T18:20:50.857Z,47.17
2018-08-03T18:23:19.646Z,47.34
2018-08-03T18:25:48.506Z,48.22
2018-08-03T18:28:17.269Z,48.81
2018-08-03T18:30:46.435Z,49.12
2018-08-03T18:33:15.200Z,48.98
2018-08-03T18:35:43.980Z,50.26
2018-08-03T18:38:12.740Z,49.24
2018-08-03T18:40:41.736Z,51.04
2018-08-03T18:43:11.058Z,49.48
2018-08-03T18:45:40.607Z,48.12
2018-08-03T18:48:09.589Z,49.16
2018-08-03T18:50:40.209Z,48.87
2018-08-03T18:53:11.346Z,49.34
2018-08-03T18:55:41.608Z,50.44
2018-08-03T18:58:10.661Z,49.95
2018-08-03T19:00:39.511Z,49.55
2018-08-03T19:03:08.322Z,49.20
2018-08-03T19:05:38.420Z,50.19
2018-08-03T19:08:07.244Z,48.83
2018-08-03T19:10:36.365Z,48.85
2018-08-03T19:13:07.514Z,49.12
2018-08-03T19:15:36.824Z,50.22
2018-08-03T19:18:05.644Z,49.84
2018-08-03T19:20:34.388Z,49.10
2018-08-03T19:23:04.659Z,50.27
2018-08-03T19:25:35.034Z,50.61
2018-08-03T19:28:03.980Z,50.65
2018-08-03T19:30:33.983Z,50.10
2018-08-03T19:33:03.525Z,50.41
2018-08-03T19:35:32.452Z,49.48
2018-08-03T19:38:01.572Z,49.04
2018-08-03T19:40:30.793Z,49.33
2018-08-03T19:42:59.809Z,49.23
2018-08-03T19:45:29.261Z,49.28
2018-08-03T19:47:58.137Z,49.71
2018-08-03T19:50:28.280Z,50.34
2018-08-03T19:52:57.910Z,50.35
2018-08-03T19:55:26.888Z,50.46
2018-08-03T19:57:55.821Z,50.67
2018-08-03T20:00:24.808Z,50.81
2018-08-03T20:02:53.669Z,50.90
2018-08-03T20:05:23.467Z,51.15
2018-08-03T20:07:52.482Z,51.29
2018-08-03T20:10:21.612Z,51.58
2018-08-03T20:12:50.371Z,52.03
2018-08-03T20:15:19.539Z,51.96
2018-08-03T20:17:48.352Z,52.16
2018-08-03T20:20:18.009Z,52.25
2018-08-03T20:22:47.513Z,52.44
2018-08-03T20:25:16.230Z,52.64
2018-08-03T20:27:44.966Z,52.71
2018-08-03T20:30:13.876Z,52.84
2018-08-03T20:32:42.807Z,52.74
2018-08-03T20:35:11.482Z,53.00
2018-08-03T20:37:40.260Z,53.41
2018-08-03T20:40:09.530Z,54.21
2018-08-03T20:42:38.415Z,54.40
2018-08-03T20:45:07.216Z,54.83
2018-08-03T20:47:35.972Z,54.87
2018-08-03T20:50:04.744Z,55.01
2018-08-03T20:52:33.470Z,54.76
2018-08-03T20:55:02.209Z,54.77
2018-08-03T20:57:31.172Z,54.51
2018-08-03T20:59:59.880Z,54.47
2018-08-03T21:02:29.551Z,54.92
2018-08-03T21:04:58.380Z,54.82
2018-08-03T21:07:27.121Z,55.37
2018-08-03T21:09:55.889Z,55.73
2018-08-03T21:12:24.763Z,55.63
2018-08-03T21:14:53.626Z,55.45
2018-08-03T21:17:22.393Z,55.66
2018-08-03T21:19:51.350Z,55.45
2018-08-03T21:22:20.095Z,55.71
2018-08-03T21:24:49.014Z,56.26
2018-08-03T21:27:18.626Z,56.90
2018-08-03T21:29:47.670Z,56.92
2018-08-03T21:32:16.374Z,57.61
2018-08-03T21:34:45.085Z,57.64
2018-08-03T21:37:14.032Z,57.78
2018-08-03T21:39:42.803Z,58.14
2018-08-03T21:42:11.578Z,58.33
2018-08-03T21:44:40.324Z,58.60
2018-08-03T21:47:09.132Z,58.61
2018-08-03T21:49:37.986Z,58.66
2018-08-03T21:52:06.723Z,58.88
2018-08-03T21:54:35.476Z,58.86
2018-08-03T21:57:04.604Z,58.53
2018-08-03T21:59:33.332Z,58.69
2018-08-03T22:02:02.057Z,58.82
2018-08-03T22:04:30.805Z,59.04
2018-08-03T22:06:59.575Z,59.17
2018-08-03T22:09:28.307Z,59.26
2018-08-03T22:11:57.021Z,59.14
2018-08-03T22:14:26.599Z,59.42
2018-08-03T22:16:55.529Z,59.86
2018-08-03T22:19:24.465Z,59.00
2018-08-03T22:21:53.219Z,59.58
2018-08-03T22:24:21.957Z,59.47
2018-08-03T22:26:50.704Z,59.29
2018-08-03T22:29:19.440Z,59.33
2018-08-03T22:31:48.246Z,59.37
2018-08-03T22:34:17.116Z,59.11
2018-08-03T22:36:45.905Z,59.02
2018-08-03T22:39:14.747Z,59.24
2018-08-03T22:41:43.656Z,59.14
2018-08-03T22:44:12.341Z,59.39
2018-08-03T22:46:41.277Z,59.04
2018-08-03T22:49:09.915Z,58.69
2018-08-03T22:51:38.661Z,58.53
2018-08-03T22:54:07.319Z,58.62
2018-08-03T22:56:35.967Z,58.78
2018-08-03T22:59:04.708Z,58.66
2018-08-03T23:01:33.406Z,58.40
2018-08-03T23:04:02.141Z,58.28
2018-08-03T23:06:30.920Z,58.26
2018-08-03T23:08:59.602Z,58.41
2018-08-03T23:11:28.313Z,58.56
2018-08-03T23:13:57.086Z,58.40
2018-08-03T23:16:25.849Z,57.86
2018-08-03T23:18:54.582Z,60.14
2018-08-03T23:21:23.199Z,61.79
2018-08-03T23:23:51.964Z,62.14
2018-08-03T23:26:20.674Z,62.55
2018-08-03T23:28:49.429Z,62.44
2018-08-03T23:31:18.190Z,63.24
2018-08-03T23:33:46.901Z,62.10
2018-08-03T23:36:15.560Z,61.25
2018-08-03T23:38:44.269Z,61.16
2018-08-03T23:41:12.925Z,60.65
2018-08-03T23:43:41.696Z,60.88
2018-08-03T23:46:10.352Z,60.49
2018-08-03T23:48:39.091Z,59.98
2018-08-03T23:51:07.760Z,59.75
2018-08-03T23:53:36.543Z,60.28
2018-08-03T23:56:05.366Z,60.00
2018-08-03T23:58:34.068Z,60.13
